WXM80 ListenWXM80 Stop

You find our weather info also at:

UK Metoffice

WeatherCloud

Weather Underground

Northeastern Weather Network

AWEKAS

Citizen Weather Observer Program (CWOP)

HAMweather, WeatherForYou, PWS Weather


Weather Underground History page Text

Daily Summary for August 29, 2017 Units:  Both    English   Metric
« Previous Day
Next Day »
Daily Weekly Monthly Yearly Custom
  High: Low: Average:
Temperature: 69.0 °F /  20.6 °C 62.5 °F /  16.9 °C 64.8 °F /  18.2 °C
Dew Point: 62.5 °F /  16.9 °C 57.5 °F /  14.2 °C 60.4 °F /  15.8 °C
Humidity: 96 % 77 % 86 %
Wind Speed: 8.4 mph /  13.5 km/h - 2.8 mph /  4.5 km/h
Wind Gust: 13.8 mph /  22.2 km/h - -
Wind:- - East
Pressure: 30.22 in /  1023.2 hPa 29.93 in /  1013.4 hPa -
Precipitation: 0.32 in /  8.13 mm    
Historical Graphs
 
 
Tabular Data for August 29, 2017
Time Temperature Dew Point Pressure Wind Wind Speed Wind Gust Humidity Rainfall Rate (Hourly)
00:01 62.7 °F /  17.1 °C 57.5 °F /  14.2 °C 30.21 in /  1022.9 hPa SE 0.3 mph /  0.5 km/h 2.0 mph /  3.2 km/h 83 % 0.00 in /  0 mm
00:06 62.7 °F /  17.1 °C 57.5 °F /  14.2 °C 30.21 in /  1022.9 hPa Calm     83 % 0.00 in /  0 mm
00:11 62.7 °F /  17.1 °C 57.5 °F /  14.2 °C 30.21 in /  1022.9 hPa SE 0.3 mph /  0.5 km/h 2.3 mph /  3.7 km/h 83 % 0.00 in /  0 mm
00:16 62.8 °F /  17.1 °C 57.9 °F /  14.4 °C 30.21 in /  1022.9 hPa SE 0.1 mph /  0.2 km/h 1.0 mph /  1.6 km/h 84 % 0.00 in /  0 mm
00:21 62.8 °F /  17.1 °C 57.9 °F /  14.4 °C 30.21 in /  1022.9 hPa SE 0.1 mph /  0.2 km/h 1.2 mph /  1.9 km/h 84 % 0.00 in /  0 mm
00:26 62.7 °F /  17.1 °C 57.8 °F /  14.3 °C 30.21 in /  1022.9 hPa SE 0.1 mph /  0.2 km/h 1.2 mph /  1.9 km/h 84 % 0.00 in /  0 mm
00:31 62.7 °F /  17.1 °C 57.8 °F /  14.3 °C 30.22 in /  1023.2 hPa Calm     84 % 0.00 in /  0 mm
00:36 62.7 °F /  17.1 °C 57.8 °F /  14.3 °C 30.21 in /  1022.9 hPa SE 0.2 mph /  0.3 km/h 2.0 mph /  3.2 km/h 84 % 0.00 in /  0 mm
00:41 62.6 °F /  17 °C 57.7 °F /  14.3 °C 30.22 in /  1023.2 hPa Calm     84 % 0.00 in /  0 mm
00:46 62.5 °F /  16.9 °C 57.9 °F /  14.4 °C 30.22 in /  1023.2 hPa SE 0.1 mph /  0.2 km/h 1.2 mph /  1.9 km/h 85 % 0.00 in /  0 mm
00:52 62.6 °F /  17 °C 58.0 °F /  14.4 °C 30.22 in /  1023.2 hPa Calm   1.2 mph /  1.9 km/h 85 % 0.00 in /  0 mm
00:57 62.6 °F /  17 °C 58.0 °F /  14.4 °C 30.22 in /  1023.2 hPa SE 0.3 mph /  0.5 km/h 1.2 mph /  1.9 km/h 85 % 0.00 in /  0 mm
01:02 62.6 °F /  17 °C 58.0 °F /  14.4 °C 30.21 in /  1022.9 hPa SE 0.2 mph /  0.3 km/h 1.2 mph /  1.9 km/h 85 % 0.00 in /  0 mm
01:07 62.6 °F /  17 °C 58.4 °F /  14.7 °C 30.22 in /  1023.2 hPa Calm   1.2 mph /  1.9 km/h 86 % 0.00 in /  0 mm
01:12 62.7 °F /  17.1 °C 58.5 °F /  14.7 °C 30.22 in /  1023.2 hPa Calm   1.2 mph /  1.9 km/h 86 % 0.00 in /  0 mm
01:17 62.7 °F /  17.1 °C 58.5 °F /  14.7 °C 30.22 in /  1023.2 hPa Calm   1.2 mph /  1.9 km/h 86 % 0.00 in /  0 mm
01:22 62.8 °F /  17.1 °C 58.5 °F /  14.7 °C 30.22 in /  1023.2 hPa SE 0.2 mph /  0.3 km/h 1.2 mph /  1.9 km/h 86 % 0.00 in /  0 mm
01:27 62.8 °F /  17.1 °C 58.5 °F /  14.7 °C 30.21 in /  1022.9 hPa SE 0.1 mph /  0.2 km/h 1.2 mph /  1.9 km/h 86 % 0.00 in /  0 mm
01:32 62.8 °F /  17.1 °C 58.5 °F /  14.7 °C 30.21 in /  1022.9 hPa Calm   1.0 mph /  1.6 km/h 86 % 0.00 in /  0 mm
01:37 62.8 °F /  17.1 °C 58.5 °F /  14.7 °C 30.21 in /  1022.9 hPa Calm     86 % 0.00 in /  0 mm
01:42 62.8 °F /  17.1 °C 58.5 °F /  14.7 °C 30.21 in /  1022.9 hPa Calm   1.2 mph /  1.9 km/h 86 % 0.00 in /  0 mm
01:47 62.8 °F /  17.1 °C 58.5 °F /  14.7 °C 30.21 in /  1022.9 hPa SE 0.1 mph /  0.2 km/h 2.3 mph /  3.7 km/h 86 % 0.00 in /  0 mm
01:48 62.7 °F /  17.1 °C 58.5 °F /  14.7 °C 30.21 in /  1022.9 hPa Calm   1.2 mph /  1.9 km/h 86 % 0.00 in /  0 mm
01:53 62.8 °F /  17.1 °C 58.5 °F /  14.7 °C 30.20 in /  1022.6 hPa Calm   1.2 mph /  1.9 km/h 86 % 0.00 in /  0 mm
01:58 62.7 °F /  17.1 °C 58.5 °F /  14.7 °C 30.20 in /  1022.6 hPa Calm   1.2 mph /  1.9 km/h 86 % 0.00 in /  0 mm
02:03 62.8 °F /  17.1 °C 58.5 °F /  14.7 °C 30.20 in /  1022.6 hPa SE 0.3 mph /  0.5 km/h 1.2 mph /  1.9 km/h 86 % 0.00 in /  0 mm
02:09 62.8 °F /  17.1 °C 58.5 °F /  14.7 °C 30.20 in /  1022.6 hPa SE 0.5 mph /  0.8 km/h 1.2 mph /  1.9 km/h 86 % 0.00 in /  0 mm
02:14 62.8 °F /  17.1 °C 58.5 °F /  14.7 °C 30.20 in /  1022.6 hPa SE 0.2 mph /  0.3 km/h 3.5 mph /  5.6 km/h 86 % 0.00 in /  0 mm
02:19 62.8 °F /  17.1 °C 58.5 °F /  14.7 °C 30.19 in /  1022.2 hPa SE 0.1 mph /  0.2 km/h 1.2 mph /  1.9 km/h 86 % 0.00 in /  0 mm
02:24 62.9 °F /  17.2 °C 58.3 °F /  14.6 °C 30.19 in /  1022.2 hPa SE 0.7 mph /  1.1 km/h 3.5 mph /  5.6 km/h 85 % 0.00 in /  0 mm
02:29 62.9 °F /  17.2 °C 58.3 °F /  14.6 °C 30.18 in /  1021.9 hPa SE 0.7 mph /  1.1 km/h 2.3 mph /  3.7 km/h 85 % 0.00 in /  0 mm
02:34 62.9 °F /  17.2 °C 58.3 °F /  14.6 °C 30.18 in /  1021.9 hPa SE 1.2 mph /  1.9 km/h 2.3 mph /  3.7 km/h 85 % 0.00 in /  0 mm
02:39 63.0 °F /  17.2 °C 58.4 °F /  14.7 °C 30.18 in /  1021.9 hPa SE 0.7 mph /  1.1 km/h 2.3 mph /  3.7 km/h 85 % 0.00 in /  0 mm
02:44 63.1 °F /  17.3 °C 58.5 °F /  14.7 °C 30.18 in /  1021.9 hPa SE 0.5 mph /  0.8 km/h 1.2 mph /  1.9 km/h 85 % 0.00 in /  0 mm
02:49 63.1 °F /  17.3 °C 58.8 °F /  14.9 °C 30.18 in /  1021.9 hPa SE 0.3 mph /  0.5 km/h 1.2 mph /  1.9 km/h 86 % 0.00 in /  0 mm
02:54 63.2 °F /  17.3 °C 58.9 °F /  14.9 °C 30.18 in /  1021.9 hPa SE 0.1 mph /  0.2 km/h 1.2 mph /  1.9 km/h 86 % 0.00 in /  0 mm
02:59 63.2 °F /  17.3 °C 58.9 °F /  14.9 °C 30.18 in /  1021.9 hPa Calm     86 % 0.00 in /  0 mm
03:04 63.2 °F /  17.3 °C 58.9 °F /  14.9 °C 30.18 in /  1021.9 hPa SE 0.2 mph /  0.3 km/h 1.2 mph /  1.9 km/h 86 % 0.00 in /  0 mm
03:09 63.2 °F /  17.3 °C 59.3 °F /  15.2 °C 30.17 in /  1021.6 hPa SE 1.2 mph /  1.9 km/h 2.3 mph /  3.7 km/h 87 % 0.00 in /  0 mm
03:15 63.3 °F /  17.4 °C 59.4 °F /  15.2 °C 30.17 in /  1021.6 hPa SE 1.0 mph /  1.6 km/h 2.3 mph /  3.7 km/h 87 % 0.00 in /  0 mm
03:20 63.4 °F /  17.4 °C 59.1 °F /  15.1 °C 30.17 in /  1021.6 hPa ESE 1.6 mph /  2.6 km/h 3.5 mph /  5.6 km/h 86 % 0.00 in /  0 mm
03:25 63.5 °F /  17.5 °C 59.2 °F /  15.1 °C 30.17 in /  1021.6 hPa ESE 0.7 mph /  1.1 km/h 2.3 mph /  3.7 km/h 86 % 0.00 in /  0 mm
03:30 63.6 °F /  17.6 °C 59.0 °F /  15 °C 30.17 in /  1021.6 hPa ESE 1.5 mph /  2.4 km/h 2.3 mph /  3.7 km/h 85 % 0.00 in /  0 mm
03:35 63.8 °F /  17.7 °C 59.2 °F /  15.1 °C 30.17 in /  1021.6 hPa ESE 1.1 mph /  1.8 km/h 2.3 mph /  3.7 km/h 85 % 0.00 in /  0 mm
03:40 63.9 °F /  17.7 °C 59.0 °F /  15 °C 30.17 in /  1021.6 hPa East 1.7 mph /  2.7 km/h 3.5 mph /  5.6 km/h 84 % 0.00 in /  0 mm
03:45 64.0 °F /  17.8 °C 58.7 °F /  14.8 °C 30.17 in /  1021.6 hPa East 1.6 mph /  2.6 km/h 3.5 mph /  5.6 km/h 83 % 0.00 in /  0 mm
03:50 64.1 °F /  17.8 °C 58.8 °F /  14.9 °C 30.16 in /  1021.2 hPa East 1.9 mph /  3.1 km/h 2.3 mph /  3.7 km/h 83 % 0.00 in /  0 mm
03:55 64.1 °F /  17.8 °C 58.8 °F /  14.9 °C 30.17 in /  1021.6 hPa East 1.2 mph /  1.9 km/h 3.5 mph /  5.6 km/h 83 % 0.00 in /  0 mm
04:01 64.2 °F /  17.9 °C 58.6 °F /  14.8 °C 30.17 in /  1021.6 hPa East 1.8 mph /  2.9 km/h 3.5 mph /  5.6 km/h 82 % 0.00 in /  0 mm
04:06 64.3 °F /  17.9 °C 58.3 °F /  14.6 °C 30.17 in /  1021.6 hPa East 2.0 mph /  3.2 km/h 5.0 mph /  8 km/h 81 % 0.00 in /  0 mm
04:11 64.4 °F /  18 °C 58.4 °F /  14.7 °C 30.16 in /  1021.2 hPa ESE 1.0 mph /  1.6 km/h 3.0 mph /  4.8 km/h 81 % 0.00 in /  0 mm
04:16 64.5 °F /  18.1 °C 58.5 °F /  14.7 °C 30.17 in /  1021.6 hPa East 1.0 mph /  1.6 km/h 3.0 mph /  4.8 km/h 81 % 0.00 in /  0 mm
04:21 64.6 °F /  18.1 °C 58.6 °F /  14.8 °C 30.17 in /  1021.6 hPa Calm   3.0 mph /  4.8 km/h 81 % 0.00 in /  0 mm
04:26 64.5 °F /  18.1 °C 58.5 °F /  14.7 °C 30.17 in /  1021.6 hPa ESE 0.4 mph /  0.6 km/h 1.2 mph /  1.9 km/h 81 % 0.00 in /  0 mm
04:31 64.6 °F /  18.1 °C 58.6 °F /  14.8 °C 30.17 in /  1021.6 hPa ESE 1.0 mph /  1.6 km/h 3.0 mph /  4.8 km/h 81 % 0.00 in /  0 mm
04:36 64.6 °F /  18.1 °C 58.6 °F /  14.8 °C 30.17 in /  1021.6 hPa ESE 1.0 mph /  1.6 km/h 3.0 mph /  4.8 km/h 81 % 0.00 in /  0 mm
04:41 64.5 °F /  18.1 °C 58.9 °F /  14.9 °C 30.17 in /  1021.6 hPa Calm   2.0 mph /  3.2 km/h 82 % 0.00 in /  0 mm
04:46 64.5 °F /  18.1 °C 58.9 °F /  14.9 °C 30.17 in /  1021.6 hPa Calm   5.0 mph /  8 km/h 82 % 0.00 in /  0 mm
04:51 64.4 °F /  18 °C 58.8 °F /  14.9 °C 30.17 in /  1021.6 hPa ESE 0.9 mph /  1.4 km/h 2.3 mph /  3.7 km/h 82 % 0.00 in /  0 mm
04:54 64.4 °F /  18 °C 58.8 °F /  14.9 °C 30.17 in /  1021.6 hPa ESE 1.2 mph /  1.9 km/h 3.5 mph /  5.6 km/h 82 % 0.00 in /  0 mm
04:59 64.3 °F /  17.9 °C 58.7 °F /  14.8 °C 30.17 in /  1021.6 hPa East 0.5 mph /  0.8 km/h 2.3 mph /  3.7 km/h 82 % 0.00 in /  0 mm
05:04 64.3 °F /  17.9 °C 58.7 °F /  14.8 °C 30.17 in /  1021.6 hPa ESE 1.8 mph /  2.9 km/h 3.5 mph /  5.6 km/h 82 % 0.00 in /  0 mm
05:09 64.3 °F /  17.9 °C 58.7 °F /  14.8 °C 30.17 in /  1021.6 hPa ESE 1.0 mph /  1.6 km/h 2.3 mph /  3.7 km/h 82 % 0.00 in /  0 mm
05:14 64.3 °F /  17.9 °C 58.7 °F /  14.8 °C 30.17 in /  1021.6 hPa East 0.2 mph /  0.3 km/h 2.3 mph /  3.7 km/h 82 % 0.00 in /  0 mm
05:19 64.3 °F /  17.9 °C 58.7 °F /  14.8 °C 30.17 in /  1021.6 hPa East 1.3 mph /  2.1 km/h 2.3 mph /  3.7 km/h 82 % 0.00 in /  0 mm
05:24 64.3 °F /  17.9 °C 58.7 °F /  14.8 °C 30.17 in /  1021.6 hPa ESE 0.7 mph /  1.1 km/h 3.5 mph /  5.6 km/h 82 % 0.00 in /  0 mm
05:29 64.3 °F /  17.9 °C 58.7 °F /  14.8 °C 30.18 in /  1021.9 hPa SE 1.4 mph /  2.3 km/h 2.3 mph /  3.7 km/h 82 % 0.00 in /  0 mm
05:34 64.3 °F /  17.9 °C 58.7 °F /  14.8 °C 30.18 in /  1021.9 hPa SE 0.8 mph /  1.3 km/h 2.3 mph /  3.7 km/h 82 % 0.00 in /  0 mm
05:39 64.3 °F /  17.9 °C 58.7 °F /  14.8 °C 30.18 in /  1021.9 hPa SE 1.1 mph /  1.8 km/h 3.5 mph /  5.6 km/h 82 % 0.00 in /  0 mm
05:44 64.3 °F /  17.9 °C 58.7 °F /  14.8 °C 30.18 in /  1021.9 hPa SE 0.6 mph /  1 km/h 2.3 mph /  3.7 km/h 82 % 0.00 in /  0 mm
05:49 64.3 °F /  17.9 °C 58.7 °F /  14.8 °C 30.18 in /  1021.9 hPa ESE 1.7 mph /  2.7 km/h 3.5 mph /  5.6 km/h 82 % 0.00 in /  0 mm
05:54 64.3 °F /  17.9 °C 58.7 °F /  14.8 °C 30.18 in /  1021.9 hPa East 1.5 mph /  2.4 km/h 3.5 mph /  5.6 km/h 82 % 0.00 in /  0 mm
05:59 64.4 °F /  18 °C 58.4 °F /  14.7 °C 30.18 in /  1021.9 hPa ESE 0.8 mph /  1.3 km/h 3.5 mph /  5.6 km/h 81 % 0.00 in /  0 mm
06:04 64.5 °F /  18.1 °C 58.5 °F /  14.7 °C 30.18 in /  1021.9 hPa East 0.4 mph /  0.6 km/h 3.5 mph /  5.6 km/h 81 % 0.00 in /  0 mm
06:10 64.5 °F /  18.1 °C 58.5 °F /  14.7 °C 30.18 in /  1021.9 hPa ESE 0.5 mph /  0.8 km/h 2.3 mph /  3.7 km/h 81 % 0.00 in /  0 mm
06:14 64.6 °F /  18.1 °C 58.6 °F /  14.8 °C 30.17 in /  1021.6 hPa East 2.5 mph /  4 km/h 3.5 mph /  5.6 km/h 81 % 0.00 in /  0 mm
06:20 64.6 °F /  18.1 °C 58.6 °F /  14.8 °C 30.17 in /  1021.6 hPa East 2.5 mph /  4 km/h 3.5 mph /  5.6 km/h 81 % 0.00 in /  0 mm
06:25 64.7 °F /  18.2 °C 58.7 °F /  14.8 °C 30.18 in /  1021.9 hPa East 1.5 mph /  2.4 km/h 2.3 mph /  3.7 km/h 81 % 0.00 in /  0 mm
06:30 64.7 °F /  18.2 °C 58.7 °F /  14.8 °C 30.18 in /  1021.9 hPa East 1.6 mph /  2.6 km/h 3.5 mph /  5.6 km/h 81 % 0.00 in /  0 mm
06:35 64.8 °F /  18.2 °C 58.5 °F /  14.7 °C 30.18 in /  1021.9 hPa East 2.2 mph /  3.5 km/h 4.6 mph /  7.4 km/h 80 % 0.00 in /  0 mm
06:40 64.9 °F /  18.3 °C 58.6 °F /  14.8 °C 30.18 in /  1021.9 hPa East 1.5 mph /  2.4 km/h 3.5 mph /  5.6 km/h 80 % 0.00 in /  0 mm
06:45 64.9 °F /  18.3 °C 58.6 °F /  14.8 °C 30.18 in /  1021.9 hPa East 2.9 mph /  4.7 km/h 4.6 mph /  7.4 km/h 80 % 0.00 in /  0 mm
06:50 64.9 °F /  18.3 °C 58.6 °F /  14.8 °C 30.18 in /  1021.9 hPa East 2.2 mph /  3.5 km/h 4.6 mph /  7.4 km/h 80 % 0.00 in /  0 mm
06:55 65.0 °F /  18.3 °C 58.3 °F /  14.6 °C 30.18 in /  1021.9 hPa ESE 2.2 mph /  3.5 km/h 3.5 mph /  5.6 km/h 79 % 0.00 in /  0 mm
07:00 65.0 °F /  18.3 °C 58.7 °F /  14.8 °C 30.18 in /  1021.9 hPa East 2.1 mph /  3.4 km/h 3.5 mph /  5.6 km/h 80 % 0.00 in /  0 mm
07:05 65.1 °F /  18.4 °C 58.4 °F /  14.7 °C 30.18 in /  1021.9 hPa East 1.6 mph /  2.6 km/h 3.5 mph /  5.6 km/h 79 % 0.00 in /  0 mm
07:10 65.1 °F /  18.4 °C 58.4 °F /  14.7 °C 30.18 in /  1021.9 hPa East 2.0 mph /  3.2 km/h 3.5 mph /  5.6 km/h 79 % 0.00 in /  0 mm
07:16 65.2 °F /  18.4 °C 58.5 °F /  14.7 °C 30.18 in /  1021.9 hPa East 2.1 mph /  3.4 km/h 5.0 mph /  8 km/h 79 % 0.00 in /  0 mm
07:21 65.3 °F /  18.5 °C 58.6 °F /  14.8 °C 30.18 in /  1021.9 hPa East 2.0 mph /  3.2 km/h 6.0 mph /  9.7 km/h 79 % 0.00 in /  0 mm
07:26 65.3 °F /  18.5 °C 58.6 °F /  14.8 °C 30.17 in /  1021.6 hPa East 2.0 mph /  3.2 km/h 3.0 mph /  4.8 km/h 79 % 0.00 in /  0 mm
07:31 65.3 °F /  18.5 °C 58.6 °F /  14.8 °C 30.18 in /  1021.9 hPa East 2.0 mph /  3.2 km/h 5.0 mph /  8 km/h 79 % 0.00 in /  0 mm
07:36 65.4 °F /  18.6 °C 59.1 °F /  15.1 °C 30.18 in /  1021.9 hPa East 1.0 mph /  1.6 km/h 3.0 mph /  4.8 km/h 80 % 0.00 in /  0 mm
07:41 65.4 °F /  18.6 °C 59.1 °F /  15.1 °C 30.18 in /  1021.9 hPa East 2.0 mph /  3.2 km/h 3.0 mph /  4.8 km/h 80 % 0.00 in /  0 mm
07:46 65.5 °F /  18.6 °C 59.2 °F /  15.1 °C 30.18 in /  1021.9 hPa East 2.0 mph /  3.2 km/h 3.0 mph /  4.8 km/h 80 % 0.00 in /  0 mm
07:51 65.5 °F /  18.6 °C 59.2 °F /  15.1 °C 30.18 in /  1021.9 hPa East 1.0 mph /  1.6 km/h 3.0 mph /  4.8 km/h 80 % 0.00 in /  0 mm
07:56 65.6 °F /  18.7 °C 59.3 °F /  15.2 °C 30.18 in /  1021.9 hPa East 2.0 mph /  3.2 km/h 5.0 mph /  8 km/h 80 % 0.00 in /  0 mm
08:01 65.7 °F /  18.7 °C 59.4 °F /  15.2 °C 30.18 in /  1021.9 hPa East 0.9 mph /  1.4 km/h 2.3 mph /  3.7 km/h 80 % 0.00 in /  0 mm
08:06 65.8 °F /  18.8 °C 59.5 °F /  15.3 °C 30.18 in /  1021.9 hPa ESE 2.0 mph /  3.2 km/h 3.5 mph /  5.6 km/h 80 % 0.00 in /  0 mm
08:11 65.9 °F /  18.8 °C 59.6 °F /  15.3 °C 30.17 in /  1021.6 hPa East 1.8 mph /  2.9 km/h 3.5 mph /  5.6 km/h 80 % 0.00 in /  0 mm
08:16 66.0 °F /  18.9 °C 59.7 °F /  15.4 °C 30.17 in /  1021.6 hPa East 2.0 mph /  3.2 km/h 5.0 mph /  8 km/h 80 % 0.00 in /  0 mm
08:21 66.1 °F /  18.9 °C 59.7 °F /  15.4 °C 30.17 in /  1021.6 hPa East 2.0 mph /  3.2 km/h 3.0 mph /  4.8 km/h 80 % 0.00 in /  0 mm
08:26 66.1 °F /  18.9 °C 60.1 °F /  15.6 °C 30.17 in /  1021.6 hPa East 2.0 mph /  3.2 km/h 3.5 mph /  5.6 km/h 81 % 0.00 in /  0 mm
08:31 66.3 °F /  19.1 °C 61.3 °F /  16.3 °C 30.16 in /  1021.2 hPa East 3.0 mph /  4.8 km/h 5.0 mph /  8 km/h 84 % 0.00 in /  0 mm
08:36 66.4 °F /  19.1 °C 61.4 °F /  16.3 °C 30.16 in /  1021.2 hPa East 2.0 mph /  3.2 km/h 5.0 mph /  8 km/h 84 % 0.00 in /  0 mm
08:41 66.6 °F /  19.2 °C 61.9 °F /  16.6 °C 30.16 in /  1021.2 hPa ENE 5.0 mph /  8 km/h 9.0 mph /  14.5 km/h 85 % 0.00 in /  0 mm
08:45 66.6 °F /  19.2 °C 62.3 °F /  16.8 °C 30.16 in /  1021.2 hPa East 3.5 mph /  5.6 km/h 6.9 mph /  11.1 km/h 86 % 0.00 in /  0 mm
08:50 66.7 °F /  19.3 °C 62.4 °F /  16.9 °C 30.17 in /  1021.6 hPa ENE 3.5 mph /  5.6 km/h 11.5 mph /  18.5 km/h 86 % 0.00 in /  0 mm
08:55 66.7 °F /  19.3 °C 62.0 °F /  16.7 °C 30.16 in /  1021.2 hPa ENE 4.8 mph /  7.7 km/h 9.2 mph /  14.8 km/h 85 % 0.00 in /  0 mm
09:01 66.7 °F /  19.3 °C 62.4 °F /  16.9 °C 30.16 in /  1021.2 hPa ENE 4.6 mph /  7.4 km/h 9.2 mph /  14.8 km/h 86 % 0.00 in /  0 mm
09:06 66.6 °F /  19.2 °C 61.9 °F /  16.6 °C 30.17 in /  1021.6 hPa NE 4.4 mph /  7.1 km/h 8.1 mph /  13 km/h 85 % 0.00 in /  0 mm
09:11 66.6 °F /  19.2 °C 61.9 °F /  16.6 °C 30.16 in /  1021.2 hPa ENE 3.6 mph /  5.8 km/h 8.1 mph /  13 km/h 85 % 0.00 in /  0 mm
09:16 66.5 °F /  19.2 °C 61.8 °F /  16.6 °C 30.16 in /  1021.2 hPa NE 2.2 mph /  3.5 km/h 5.0 mph /  8 km/h 85 % 0.00 in /  0 mm
09:21 66.5 °F /  19.2 °C 61.8 °F /  16.6 °C 30.16 in /  1021.2 hPa ENE 3.6 mph /  5.8 km/h 6.9 mph /  11.1 km/h 85 % 0.00 in /  0 mm
09:26 66.5 °F /  19.2 °C 62.2 °F /  16.8 °C 30.16 in /  1021.2 hPa ENE 3.7 mph /  6 km/h 8.0 mph /  12.9 km/h 86 % 0.00 in /  0 mm
09:31 66.5 °F /  19.2 °C 61.8 °F /  16.6 °C 30.16 in /  1021.2 hPa ENE 2.8 mph /  4.5 km/h 5.0 mph /  8 km/h 85 % 0.00 in /  0 mm
09:36 66.4 °F /  19.1 °C 61.8 °F /  16.6 °C 30.17 in /  1021.6 hPa ENE 2.7 mph /  4.3 km/h 3.5 mph /  5.6 km/h 85 % 0.00 in /  0 mm
09:41 66.4 °F /  19.1 °C 61.8 °F /  16.6 °C 30.16 in /  1021.2 hPa NE 3.3 mph /  5.3 km/h 6.9 mph /  11.1 km/h 85 % 0.00 in /  0 mm
09:46 66.4 °F /  19.1 °C 61.8 °F /  16.6 °C 30.17 in /  1021.6 hPa ENE 3.5 mph /  5.6 km/h 4.6 mph /  7.4 km/h 85 % 0.00 in /  0 mm
09:51 66.4 °F /  19.1 °C 61.4 °F /  16.3 °C 30.17 in /  1021.6 hPa ENE 4.1 mph /  6.6 km/h 8.1 mph /  13 km/h 84 % 0.00 in /  0 mm
09:56 66.4 °F /  19.1 °C 61.8 °F /  16.6 °C 30.17 in /  1021.6 hPa ENE 3.0 mph /  4.8 km/h 4.6 mph /  7.4 km/h 85 % 0.00 in /  0 mm
10:02 66.4 °F /  19.1 °C 61.4 °F /  16.3 °C 30.17 in /  1021.6 hPa ENE 2.6 mph /  4.2 km/h 3.5 mph /  5.6 km/h 84 % 0.00 in /  0 mm
10:12 66.4 °F /  19.1 °C 61.4 °F /  16.3 °C 30.16 in /  1021.2 hPa East 3.2 mph /  5.1 km/h 6.0 mph /  9.7 km/h 84 % 0.00 in /  0 mm
10:17 66.5 °F /  19.2 °C 61.2 °F /  16.2 °C 30.16 in /  1021.2 hPa ENE 4.6 mph /  7.4 km/h 4.6 mph /  7.4 km/h 83 % 0.00 in /  0 mm
10:22 66.5 °F /  19.2 °C 60.8 °F /  16 °C 30.16 in /  1021.2 hPa ENE 3.0 mph /  4.8 km/h 5.8 mph /  9.3 km/h 82 % 0.00 in /  0 mm
10:27 66.5 °F /  19.2 °C 61.2 °F /  16.2 °C 30.16 in /  1021.2 hPa East 2.8 mph /  4.5 km/h 5.0 mph /  8 km/h 83 % 0.00 in /  0 mm
10:32 66.6 °F /  19.2 °C 61.3 °F /  16.3 °C 30.16 in /  1021.2 hPa East 2.9 mph /  4.7 km/h 4.6 mph /  7.4 km/h 83 % 0.00 in /  0 mm
10:37 66.6 °F /  19.2 °C 61.3 °F /  16.3 °C 30.16 in /  1021.2 hPa East 3.0 mph /  4.8 km/h 4.6 mph /  7.4 km/h 83 % 0.00 in /  0 mm
10:42 66.8 °F /  19.3 °C 61.5 °F /  16.4 °C 30.15 in /  1020.9 hPa ENE 3.0 mph /  4.8 km/h 3.5 mph /  5.6 km/h 83 % 0.00 in /  0 mm
10:47 67.0 °F /  19.4 °C 61.7 °F /  16.5 °C 30.16 in /  1021.2 hPa East 3.1 mph /  5 km/h 5.0 mph /  8 km/h 83 % 0.00 in /  0 mm
10:52 67.0 °F /  19.4 °C 61.3 °F /  16.3 °C 30.15 in /  1020.9 hPa ENE 2.8 mph /  4.5 km/h 6.9 mph /  11.1 km/h 82 % 0.00 in /  0 mm
10:57 67.1 °F /  19.5 °C 61.8 °F /  16.6 °C 30.16 in /  1021.2 hPa East 3.5 mph /  5.6 km/h 8.1 mph /  13 km/h 83 % 0.00 in /  0 mm
11:02 67.2 °F /  19.6 °C 61.9 °F /  16.6 °C 30.16 in /  1021.2 hPa East 3.9 mph /  6.3 km/h 5.8 mph /  9.3 km/h 83 % 0.00 in /  0 mm
11:07 67.3 °F /  19.6 °C 62.0 °F /  16.7 °C 30.16 in /  1021.2 hPa East 2.7 mph /  4.3 km/h 3.5 mph /  5.6 km/h 83 % 0.00 in /  0 mm
11:12 67.5 °F /  19.7 °C 62.5 °F /  16.9 °C 30.16 in /  1021.2 hPa ENE 2.7 mph /  4.3 km/h 4.6 mph /  7.4 km/h 84 % 0.00 in /  0 mm
11:17 67.6 °F /  19.8 °C 62.3 °F /  16.8 °C 30.16 in /  1021.2 hPa ENE 2.2 mph /  3.5 km/h 3.5 mph /  5.6 km/h 83 % 0.00 in /  0 mm
11:22 67.8 °F /  19.9 °C 61.8 °F /  16.6 °C 30.16 in /  1021.2 hPa East 2.5 mph /  4 km/h 4.6 mph /  7.4 km/h 81 % 0.00 in /  0 mm
11:27 67.8 °F /  19.9 °C 61.4 °F /  16.3 °C 30.15 in /  1020.9 hPa ENE 2.6 mph /  4.2 km/h 4.6 mph /  7.4 km/h 80 % 0.00 in /  0 mm
11:32 67.9 °F /  19.9 °C 61.1 °F /  16.2 °C 30.15 in /  1020.9 hPa East 2.9 mph /  4.7 km/h 4.6 mph /  7.4 km/h 79 % 0.00 in /  0 mm
11:38 67.9 °F /  19.9 °C 61.1 °F /  16.2 °C 30.15 in /  1020.9 hPa ESE 2.3 mph /  3.7 km/h 3.5 mph /  5.6 km/h 79 % 0.00 in /  0 mm
11:43 67.9 °F /  19.9 °C 61.1 °F /  16.2 °C 30.15 in /  1020.9 hPa East 3.2 mph /  5.1 km/h 4.6 mph /  7.4 km/h 79 % 0.00 in /  0 mm
11:48 67.8 °F /  19.9 °C 61.0 °F /  16.1 °C 30.15 in /  1020.9 hPa East 2.5 mph /  4 km/h 4.6 mph /  7.4 km/h 79 % 0.00 in /  0 mm
11:53 67.8 °F /  19.9 °C 61.0 °F /  16.1 °C 30.15 in /  1020.9 hPa East 1.7 mph /  2.7 km/h 3.5 mph /  5.6 km/h 79 % 0.00 in /  0 mm
11:58 67.9 °F /  19.9 °C 61.1 °F /  16.2 °C 30.14 in /  1020.5 hPa East 2.4 mph /  3.9 km/h 5.0 mph /  8 km/h 79 % 0.00 in /  0 mm
12:03 68.0 °F /  20 °C 61.6 °F /  16.4 °C 30.14 in /  1020.5 hPa East 1.6 mph /  2.6 km/h 3.5 mph /  5.6 km/h 80 % 0.00 in /  0 mm
12:08 68.2 °F /  20.1 °C 61.4 °F /  16.3 °C 30.14 in /  1020.5 hPa East 2.8 mph /  4.5 km/h 5.8 mph /  9.3 km/h 79 % 0.00 in /  0 mm
12:13 68.3 °F /  20.2 °C 61.5 °F /  16.4 °C 30.14 in /  1020.5 hPa East 2.3 mph /  3.7 km/h 3.5 mph /  5.6 km/h 79 % 0.00 in /  0 mm
12:18 68.5 °F /  20.3 °C 62.1 °F /  16.7 °C 30.14 in /  1020.5 hPa East 2.1 mph /  3.4 km/h 3.5 mph /  5.6 km/h 80 % 0.00 in /  0 mm
12:23 68.7 °F /  20.4 °C 61.9 °F /  16.6 °C 30.14 in /  1020.5 hPa East 2.7 mph /  4.3 km/h 4.6 mph /  7.4 km/h 79 % 0.00 in /  0 mm
12:28 68.8 °F /  20.4 °C 62.0 °F /  16.7 °C 30.14 in /  1020.5 hPa NE 2.5 mph /  4 km/h 3.5 mph /  5.6 km/h 79 % 0.00 in /  0 mm
12:33 69.0 °F /  20.6 °C 61.9 °F /  16.6 °C 30.14 in /  1020.5 hPa East 2.6 mph /  4.2 km/h 4.6 mph /  7.4 km/h 78 % 0.00 in /  0 mm
12:38 69.0 °F /  20.6 °C 61.5 °F /  16.4 °C 30.14 in /  1020.5 hPa East 3.3 mph /  5.3 km/h 4.6 mph /  7.4 km/h 77 % 0.00 in /  0 mm
12:43 69.0 °F /  20.6 °C 61.9 °F /  16.6 °C 30.14 in /  1020.5 hPa ENE 2.8 mph /  4.5 km/h 4.6 mph /  7.4 km/h 78 % 0.00 in /  0 mm
12:48 68.9 °F /  20.5 °C 61.8 °F /  16.6 °C 30.14 in /  1020.5 hPa ENE 3.1 mph /  5 km/h 4.6 mph /  7.4 km/h 78 % 0.00 in /  0 mm
12:53 68.8 °F /  20.4 °C 62.0 °F /  16.7 °C 30.14 in /  1020.5 hPa ENE 2.7 mph /  4.3 km/h 3.5 mph /  5.6 km/h 79 % 0.00 in /  0 mm
12:58 68.7 °F /  20.4 °C 61.9 °F /  16.6 °C 30.14 in /  1020.5 hPa ENE 2.5 mph /  4 km/h 3.5 mph /  5.6 km/h 79 % 0.00 in /  0 mm
13:03 68.7 °F /  20.4 °C 62.3 °F /  16.8 °C 30.14 in /  1020.5 hPa ENE 2.5 mph /  4 km/h 4.0 mph /  6.4 km/h 80 % 0.00 in /  0 mm
13:08 68.7 °F /  20.4 °C 62.3 °F /  16.8 °C 30.13 in /  1020.2 hPa ENE 2.5 mph /  4 km/h 3.5 mph /  5.6 km/h 80 % 0.00 in /  0 mm
13:13 68.6 °F /  20.3 °C 61.5 °F /  16.4 °C 30.14 in /  1020.5 hPa East 2.0 mph /  3.2 km/h 3.5 mph /  5.6 km/h 78 % 0.00 in /  0 mm
13:18 68.5 °F /  20.3 °C 61.0 °F /  16.1 °C 30.14 in /  1020.5 hPa East 3.3 mph /  5.3 km/h 4.6 mph /  7.4 km/h 77 % 0.00 in /  0 mm
13:24 68.4 °F /  20.2 °C 61.3 °F /  16.3 °C 30.14 in /  1020.5 hPa ENE 2.6 mph /  4.2 km/h 4.6 mph /  7.4 km/h 78 % 0.00 in /  0 mm
13:29 68.3 °F /  20.2 °C 60.8 °F /  16 °C 30.14 in /  1020.5 hPa East 3.5 mph /  5.6 km/h 4.6 mph /  7.4 km/h 77 % 0.00 in /  0 mm
13:34 68.2 °F /  20.1 °C 60.7 °F /  15.9 °C 30.13 in /  1020.2 hPa East 4.1 mph /  6.6 km/h 5.8 mph /  9.3 km/h 77 % 0.00 in /  0 mm
13:39 68.1 °F /  20.1 °C 61.0 °F /  16.1 °C 30.13 in /  1020.2 hPa East 2.8 mph /  4.5 km/h 4.6 mph /  7.4 km/h 78 % 0.00 in /  0 mm
13:44 68.1 °F /  20.1 °C 60.6 °F /  15.9 °C 30.13 in /  1020.2 hPa East 3.8 mph /  6.1 km/h 5.8 mph /  9.3 km/h 77 % 0.00 in /  0 mm
13:49 68.0 °F /  20 °C 60.5 °F /  15.8 °C 30.13 in /  1020.2 hPa ENE 3.1 mph /  5 km/h 4.6 mph /  7.4 km/h 77 % 0.00 in /  0 mm
13:54 67.9 °F /  19.9 °C 60.4 °F /  15.8 °C 30.12 in /  1019.9 hPa East 3.1 mph /  5 km/h 5.8 mph /  9.3 km/h 77 % 0.00 in /  0 mm
13:59 68.0 °F /  20 °C 61.2 °F /  16.2 °C 30.12 in /  1019.9 hPa East 3.5 mph /  5.6 km/h 5.0 mph /  8 km/h 79 % 0.00 in /  0 mm
14:04 68.0 °F /  20 °C 60.9 °F /  16.1 °C 30.11 in /  1019.5 hPa East 3.6 mph /  5.8 km/h 5.0 mph /  8 km/h 78 % 0.00 in /  0 mm
14:09 68.1 °F /  20.1 °C 61.0 °F /  16.1 °C 30.11 in /  1019.5 hPa ENE 3.6 mph /  5.8 km/h 5.8 mph /  9.3 km/h 78 % 0.00 in /  0 mm
14:14 68.0 °F /  20 °C 61.2 °F /  16.2 °C 30.11 in /  1019.5 hPa ENE 3.3 mph /  5.3 km/h 4.6 mph /  7.4 km/h 79 % 0.00 in /  0 mm
14:19 68.0 °F /  20 °C 61.2 °F /  16.2 °C 30.11 in /  1019.5 hPa ENE 2.2 mph /  3.5 km/h 3.5 mph /  5.6 km/h 79 % 0.00 in /  0 mm
14:24 68.0 °F /  20 °C 61.2 °F /  16.2 °C 30.11 in /  1019.5 hPa East 2.4 mph /  3.9 km/h 3.5 mph /  5.6 km/h 79 % 0.00 in /  0 mm
14:29 67.9 °F /  19.9 °C 61.1 °F /  16.2 °C 30.11 in /  1019.5 hPa ENE 2.9 mph /  4.7 km/h 5.0 mph /  8 km/h 79 % 0.00 in /  0 mm
14:34 67.8 °F /  19.9 °C 61.0 °F /  16.1 °C 30.11 in /  1019.5 hPa ENE 4.5 mph /  7.2 km/h 9.0 mph /  14.5 km/h 79 % 0.00 in /  0 mm
14:39 67.7 °F /  19.8 °C 61.0 °F /  16.1 °C 30.11 in /  1019.5 hPa ENE 3.3 mph /  5.3 km/h 4.6 mph /  7.4 km/h 79 % 0.00 in /  0 mm
14:44 67.7 °F /  19.8 °C 61.0 °F /  16.1 °C 30.11 in /  1019.5 hPa East 3.5 mph /  5.6 km/h 6.9 mph /  11.1 km/h 79 % 0.00 in /  0 mm
14:49 67.6 °F /  19.8 °C 61.2 °F /  16.2 °C 30.10 in /  1019.2 hPa ENE 2.7 mph /  4.3 km/h 4.6 mph /  7.4 km/h 80 % 0.00 in /  0 mm
14:54 67.6 °F /  19.8 °C 61.9 °F /  16.6 °C 30.10 in /  1019.2 hPa ENE 2.8 mph /  4.5 km/h 3.5 mph /  5.6 km/h 82 % 0.00 in /  0 mm
14:59 67.4 °F /  19.7 °C 62.1 °F /  16.7 °C 30.10 in /  1019.2 hPa East 2.9 mph /  4.7 km/h 3.5 mph /  5.6 km/h 83 % 0.00 in /  0 mm
15:04 67.2 °F /  19.6 °C 62.2 °F /  16.8 °C 30.10 in /  1019.2 hPa ENE 2.5 mph /  4 km/h 3.5 mph /  5.6 km/h 84 % 0.00 in /  0 mm
15:09 67.0 °F /  19.4 °C 62.3 °F /  16.8 °C 30.09 in /  1018.8 hPa ENE 3.6 mph /  5.8 km/h 4.6 mph /  7.4 km/h 85 % 0.00 in /  0 mm
15:14 66.7 °F /  19.3 °C 62.0 °F /  16.7 °C 30.09 in /  1018.8 hPa East 3.4 mph /  5.5 km/h 5.8 mph /  9.3 km/h 85 % 0.00 in /  0 mm
15:20 66.5 °F /  19.2 °C 62.2 °F /  16.8 °C 30.09 in /  1018.8 hPa East 3.4 mph /  5.5 km/h 4.6 mph /  7.4 km/h 86 % 0.00 in /  0 mm
15:25 66.2 °F /  19 °C 62.2 °F /  16.8 °C 30.09 in /  1018.8 hPa East 3.6 mph /  5.8 km/h 5.8 mph /  9.3 km/h 87 % 0.01 in /  0.25 mm
15:30 65.9 °F /  18.8 °C 62.2 °F /  16.8 °C 30.08 in /  1018.5 hPa East 2.9 mph /  4.7 km/h 5.8 mph /  9.3 km/h 88 % 0.01 in /  0.25 mm
15:35 65.8 °F /  18.8 °C 62.1 °F /  16.7 °C 30.08 in /  1018.5 hPa East 2.9 mph /  4.7 km/h 4.6 mph /  7.4 km/h 88 % 0.01 in /  0.25 mm
15:40 65.6 °F /  18.7 °C 61.9 °F /  16.6 °C 30.08 in /  1018.5 hPa East 2.7 mph /  4.3 km/h 4.6 mph /  7.4 km/h 88 % 0.02 in /  0.51 mm
15:45 65.4 °F /  18.6 °C 61.8 °F /  16.6 °C 30.08 in /  1018.5 hPa East 3.4 mph /  5.5 km/h 5.8 mph /  9.3 km/h 88 % 0.02 in /  0.51 mm
15:50 65.2 °F /  18.4 °C 61.9 °F /  16.6 °C 30.08 in /  1018.5 hPa East 4.6 mph /  7.4 km/h 5.8 mph /  9.3 km/h 89 % 0.02 in /  0.51 mm
15:55 65.1 °F /  18.4 °C 61.8 °F /  16.6 °C 30.08 in /  1018.5 hPa ENE 3.1 mph /  5 km/h 4.6 mph /  7.4 km/h 89 % 0.02 in /  0.51 mm
16:00 65.0 °F /  18.3 °C 61.7 °F /  16.5 °C 30.08 in /  1018.5 hPa East 2.7 mph /  4.3 km/h 4.6 mph /  7.4 km/h 89 % 0.03 in /  0.76 mm
16:05 64.8 °F /  18.2 °C 61.5 °F /  16.4 °C 30.08 in /  1018.5 hPa East 3.7 mph /  6 km/h 4.6 mph /  7.4 km/h 89 % 0.03 in /  0.76 mm
16:10 64.6 °F /  18.1 °C 61.3 °F /  16.3 °C 30.08 in /  1018.5 hPa East 3.6 mph /  5.8 km/h 5.8 mph /  9.3 km/h 89 % 0.03 in /  0.76 mm
16:15 64.5 °F /  18.1 °C 61.2 °F /  16.2 °C 30.08 in /  1018.5 hPa East 3.3 mph /  5.3 km/h 5.8 mph /  9.3 km/h 89 % 0.03 in /  0.76 mm
16:20 64.4 °F /  18 °C 61.1 °F /  16.2 °C 30.08 in /  1018.5 hPa East 2.0 mph /  3.2 km/h 3.5 mph /  5.6 km/h 89 % 0.02 in /  0.51 mm
16:23 64.3 °F /  17.9 °C 61.0 °F /  16.1 °C 30.08 in /  1018.5 hPa East 2.7 mph /  4.3 km/h 4.6 mph /  7.4 km/h 89 % 0.03 in /  0.76 mm
16:28 64.3 °F /  17.9 °C 61.0 °F /  16.1 °C 30.07 in /  1018.2 hPa East 2.9 mph /  4.7 km/h 5.0 mph /  8 km/h 89 % 0.03 in /  0.76 mm
16:33 64.1 °F /  17.8 °C 60.8 °F /  16 °C 30.07 in /  1018.2 hPa East 3.6 mph /  5.8 km/h 5.0 mph /  8 km/h 89 % 0.03 in /  0.76 mm
16:38 64.1 °F /  17.8 °C 61.1 °F /  16.2 °C 30.07 in /  1018.2 hPa East 2.3 mph /  3.7 km/h 4.6 mph /  7.4 km/h 90 % 0.02 in /  0.51 mm
16:43 64.1 °F /  17.8 °C 61.1 °F /  16.2 °C 30.07 in /  1018.2 hPa East 3.1 mph /  5 km/h 4.6 mph /  7.4 km/h 90 % 0.02 in /  0.51 mm
16:48 64.0 °F /  17.8 °C 61.0 °F /  16.1 °C 30.06 in /  1017.8 hPa East 3.3 mph /  5.3 km/h 4.6 mph /  7.4 km/h 90 % 0.02 in /  0.51 mm
16:53 64.0 °F /  17.8 °C 61.0 °F /  16.1 °C 30.06 in /  1017.8 hPa East 3.0 mph /  4.8 km/h 4.6 mph /  7.4 km/h 90 % 0.03 in /  0.76 mm
16:56 64.0 °F /  17.8 °C 61.0 °F /  16.1 °C 30.06 in /  1017.8 hPa East 4.2 mph /  6.8 km/h 5.0 mph /  8 km/h 90 % 0.03 in /  0.76 mm
17:01 63.9 °F /  17.7 °C 61.2 °F /  16.2 °C 30.06 in /  1017.8 hPa East 5.0 mph /  8 km/h 5.8 mph /  9.3 km/h 91 % 0.02 in /  0.51 mm
17:06 64.0 °F /  17.8 °C 61.3 °F /  16.3 °C 30.05 in /  1017.5 hPa East 3.3 mph /  5.3 km/h 7.0 mph /  11.3 km/h 91 % 0.02 in /  0.51 mm
17:11 64.0 °F /  17.8 °C 61.3 °F /  16.3 °C 30.05 in /  1017.5 hPa East 4.3 mph /  6.9 km/h 6.0 mph /  9.7 km/h 91 % 0.03 in /  0.76 mm
17:16 63.8 °F /  17.7 °C 61.1 °F /  16.2 °C 30.05 in /  1017.5 hPa East 4.0 mph /  6.4 km/h 5.8 mph /  9.3 km/h 91 % 0.03 in /  0.76 mm
17:21 63.9 °F /  17.7 °C 61.2 °F /  16.2 °C 30.05 in /  1017.5 hPa East 5.1 mph /  8.2 km/h 7.0 mph /  11.3 km/h 91 % 0.02 in /  0.51 mm
17:26 63.9 °F /  17.7 °C 61.5 °F /  16.4 °C 30.05 in /  1017.5 hPa East 4.0 mph /  6.4 km/h 5.8 mph /  9.3 km/h 92 % 0.03 in /  0.76 mm
17:31 63.8 °F /  17.7 °C 61.1 °F /  16.2 °C 30.05 in /  1017.5 hPa East 5.1 mph /  8.2 km/h 5.8 mph /  9.3 km/h 91 % 0.03 in /  0.76 mm
17:36 63.8 °F /  17.7 °C 61.4 °F /  16.3 °C 30.05 in /  1017.5 hPa East 3.5 mph /  5.6 km/h 4.6 mph /  7.4 km/h 92 % 0.03 in /  0.76 mm
17:41 63.8 °F /  17.7 °C 61.4 °F /  16.3 °C 30.05 in /  1017.5 hPa East 3.6 mph /  5.8 km/h 6.0 mph /  9.7 km/h 92 % 0.03 in /  0.76 mm
17:46 63.7 °F /  17.6 °C 61.3 °F /  16.3 °C 30.04 in /  1017.2 hPa East 4.6 mph /  7.4 km/h 6.0 mph /  9.7 km/h 92 % 0.04 in /  1.02 mm
17:51 63.7 °F /  17.6 °C 61.3 °F /  16.3 °C 30.04 in /  1017.2 hPa East 3.2 mph /  5.1 km/h 5.8 mph /  9.3 km/h 92 % 0.03 in /  0.76 mm
17:56 63.8 °F /  17.7 °C 61.7 °F /  16.5 °C 30.04 in /  1017.2 hPa East 4.7 mph /  7.6 km/h 6.0 mph /  9.7 km/h 93 % 0.03 in /  0.76 mm
18:11 63.6 °F /  17.6 °C 61.2 °F /  16.2 °C 30.03 in /  1016.8 hPa East 4.2 mph /  6.8 km/h 5.8 mph /  9.3 km/h 92 % 0.03 in /  0.76 mm
18:21 63.7 °F /  17.6 °C 61.6 °F /  16.4 °C 30.03 in /  1016.8 hPa East 4.5 mph /  7.2 km/h 5.8 mph /  9.3 km/h 93 % 0.03 in /  0.76 mm
18:26 63.7 °F /  17.6 °C 61.6 °F /  16.4 °C 30.03 in /  1016.8 hPa ENE 3.3 mph /  5.3 km/h 5.8 mph /  9.3 km/h 93 % 0.02 in /  0.51 mm
18:31 63.7 °F /  17.6 °C 61.3 °F /  16.3 °C 30.03 in /  1016.8 hPa East 4.9 mph /  7.9 km/h 5.8 mph /  9.3 km/h 92 % 0.03 in /  0.76 mm
18:36 63.6 °F /  17.6 °C 61.2 °F /  16.2 °C 30.03 in /  1016.8 hPa ENE 8.4 mph /  13.5 km/h 12.7 mph /  20.4 km/h 92 % 0.03 in /  0.76 mm
18:41 63.6 °F /  17.6 °C 60.9 °F /  16.1 °C 30.03 in /  1016.8 hPa East 5.5 mph /  8.9 km/h 9.0 mph /  14.5 km/h 91 % 0.03 in /  0.76 mm
18:46 63.5 °F /  17.5 °C 60.8 °F /  16 °C 30.03 in /  1016.8 hPa East 7.7 mph /  12.4 km/h 12.7 mph /  20.4 km/h 91 % 0.02 in /  0.51 mm
18:52 63.4 °F /  17.4 °C 60.4 °F /  15.8 °C 30.02 in /  1016.5 hPa ENE 7.7 mph /  12.4 km/h 9.2 mph /  14.8 km/h 90 % 0.03 in /  0.76 mm
18:57 63.4 °F /  17.4 °C 60.4 °F /  15.8 °C 30.03 in /  1016.8 hPa ENE 5.0 mph /  8 km/h 11.5 mph /  18.5 km/h 90 % 0.03 in /  0.76 mm
19:02 63.3 °F /  17.4 °C 60.3 °F /  15.7 °C 30.03 in /  1016.8 hPa East 5.1 mph /  8.2 km/h 10.4 mph /  16.7 km/h 90 % 0.02 in /  0.51 mm
19:07 63.2 °F /  17.3 °C 60.2 °F /  15.7 °C 30.02 in /  1016.5 hPa ENE 4.6 mph /  7.4 km/h 5.8 mph /  9.3 km/h 90 % 0.03 in /  0.76 mm
19:12 63.0 °F /  17.2 °C 60.0 °F /  15.6 °C 30.02 in /  1016.5 hPa ENE 5.1 mph /  8.2 km/h 6.9 mph /  11.1 km/h 90 % 0.03 in /  0.76 mm
19:17 63.0 °F /  17.2 °C 60.0 °F /  15.6 °C 30.02 in /  1016.5 hPa East 5.1 mph /  8.2 km/h 6.9 mph /  11.1 km/h 90 % 0.03 in /  0.76 mm
19:22 62.8 °F /  17.1 °C 59.5 °F /  15.3 °C 30.03 in /  1016.8 hPa East 5.5 mph /  8.9 km/h 7.0 mph /  11.3 km/h 89 % 0.03 in /  0.76 mm
19:27 62.7 °F /  17.1 °C 59.7 °F /  15.4 °C 30.02 in /  1016.5 hPa East 5.6 mph /  9 km/h 8.0 mph /  12.9 km/h 90 % 0.02 in /  0.51 mm
19:32 62.8 °F /  17.1 °C 59.8 °F /  15.4 °C 30.02 in /  1016.5 hPa East 5.3 mph /  8.5 km/h 6.9 mph /  11.1 km/h 90 % 0.02 in /  0.51 mm
19:37 62.8 °F /  17.1 °C 60.1 °F /  15.6 °C 30.02 in /  1016.5 hPa ENE 5.4 mph /  8.7 km/h 8.1 mph /  13 km/h 91 % 0.03 in /  0.76 mm
19:42 62.9 °F /  17.2 °C 59.9 °F /  15.5 °C 30.02 in /  1016.5 hPa East 4.1 mph /  6.6 km/h 6.0 mph /  9.7 km/h 90 % 0.03 in /  0.76 mm
19:47 62.9 °F /  17.2 °C 60.2 °F /  15.7 °C 30.02 in /  1016.5 hPa East 4.3 mph /  6.9 km/h 9.0 mph /  14.5 km/h 91 % 0.03 in /  0.76 mm
19:52 62.9 °F /  17.2 °C 60.2 °F /  15.7 °C 30.02 in /  1016.5 hPa East 4.6 mph /  7.4 km/h 5.8 mph /  9.3 km/h 91 % 0.02 in /  0.51 mm
19:57 62.9 °F /  17.2 °C 60.2 °F /  15.7 °C 30.01 in /  1016.1 hPa East 4.9 mph /  7.9 km/h 6.0 mph /  9.7 km/h 91 % 0.02 in /  0.51 mm
20:03 63.0 °F /  17.2 °C 60.6 °F /  15.9 °C 30.01 in /  1016.1 hPa East 3.5 mph /  5.6 km/h 8.1 mph /  13 km/h 92 % 0.02 in /  0.51 mm
20:06 63.1 °F /  17.3 °C 60.7 °F /  15.9 °C 30.01 in /  1016.1 hPa East 5.9 mph /  9.5 km/h 7.0 mph /  11.3 km/h 92 % 0.01 in /  0.25 mm
20:11 63.1 °F /  17.3 °C 60.7 °F /  15.9 °C 30.01 in /  1016.1 hPa ENE 3.1 mph /  5 km/h 5.8 mph /  9.3 km/h 92 % 0.02 in /  0.51 mm
20:16 63.2 °F /  17.3 °C 60.8 °F /  16 °C 30.02 in /  1016.5 hPa East 3.3 mph /  5.3 km/h 5.0 mph /  8 km/h 92 % 0.02 in /  0.51 mm
20:21 63.3 °F /  17.4 °C 60.9 °F /  16.1 °C 30.02 in /  1016.5 hPa East 3.4 mph /  5.5 km/h 4.6 mph /  7.4 km/h 92 % 0.02 in /  0.51 mm
20:26 63.3 °F /  17.4 °C 60.9 °F /  16.1 °C 30.02 in /  1016.5 hPa East 4.3 mph /  6.9 km/h 5.8 mph /  9.3 km/h 92 % 0.02 in /  0.51 mm
20:31 63.2 °F /  17.3 °C 61.1 °F /  16.2 °C 30.01 in /  1016.1 hPa East 3.9 mph /  6.3 km/h 5.0 mph /  8 km/h 93 % 0.02 in /  0.51 mm
20:36 63.1 °F /  17.3 °C 60.7 °F /  15.9 °C 30.00 in /  1015.8 hPa East 4.2 mph /  6.8 km/h 5.0 mph /  8 km/h 92 % 0.02 in /  0.51 mm
20:41 63.2 °F /  17.3 °C 61.1 °F /  16.2 °C 30.00 in /  1015.8 hPa East 5.2 mph /  8.4 km/h 6.9 mph /  11.1 km/h 93 % 0.02 in /  0.51 mm
20:46 63.1 °F /  17.3 °C 61.0 °F /  16.1 °C 30.00 in /  1015.8 hPa ENE 4.8 mph /  7.7 km/h 6.9 mph /  11.1 km/h 93 % 0.02 in /  0.51 mm
20:51 63.1 °F /  17.3 °C 61.0 °F /  16.1 °C 30.00 in /  1015.8 hPa East 3.4 mph /  5.5 km/h 5.8 mph /  9.3 km/h 93 % 0.03 in /  0.76 mm
20:56 63.1 °F /  17.3 °C 61.0 °F /  16.1 °C 30.00 in /  1015.8 hPa ENE 4.6 mph /  7.4 km/h 5.0 mph /  8 km/h 93 % 0.03 in /  0.76 mm
21:01 63.1 °F /  17.3 °C 61.0 °F /  16.1 °C 30.01 in /  1016.1 hPa East 4.3 mph /  6.9 km/h 5.8 mph /  9.3 km/h 93 % 0.03 in /  0.76 mm
21:06 63.2 °F /  17.3 °C 61.4 °F /  16.3 °C 30.01 in /  1016.1 hPa East 3.5 mph /  5.6 km/h 6.9 mph /  11.1 km/h 94 % 0.03 in /  0.76 mm
21:11 63.3 °F /  17.4 °C 61.5 °F /  16.4 °C 30.01 in /  1016.1 hPa ENE 3.7 mph /  6 km/h 4.6 mph /  7.4 km/h 94 % 0.03 in /  0.76 mm
21:16 63.4 °F /  17.4 °C 61.6 °F /  16.4 °C 30.01 in /  1016.1 hPa ENE 3.4 mph /  5.5 km/h 8.1 mph /  13 km/h 94 % 0.03 in /  0.76 mm
21:21 63.4 °F /  17.4 °C 61.6 °F /  16.4 °C 30.00 in /  1015.8 hPa East 3.7 mph /  6 km/h 6.0 mph /  9.7 km/h 94 % 0.04 in /  1.02 mm
21:26 63.3 °F /  17.4 °C 61.5 °F /  16.4 °C 30.00 in /  1015.8 hPa ENE 5.6 mph /  9 km/h 9.2 mph /  14.8 km/h 94 % 0.04 in /  1.02 mm
21:31 63.3 °F /  17.4 °C 61.5 °F /  16.4 °C 30.00 in /  1015.8 hPa ENE 4.0 mph /  6.4 km/h 5.8 mph /  9.3 km/h 94 % 0.05 in /  1.27 mm
21:37 63.4 °F /  17.4 °C 61.6 °F /  16.4 °C 30.00 in /  1015.8 hPa East 5.2 mph /  8.4 km/h 9.2 mph /  14.8 km/h 94 % 0.04 in /  1.02 mm
21:41 63.3 °F /  17.4 °C 61.5 °F /  16.4 °C 30.00 in /  1015.8 hPa ENE 4.2 mph /  6.8 km/h 8.1 mph /  13 km/h 94 % 0.05 in /  1.27 mm
21:47 63.4 °F /  17.4 °C 61.9 °F /  16.6 °C 30.00 in /  1015.8 hPa ENE 3.2 mph /  5.1 km/h 11.5 mph /  18.5 km/h 95 % 0.05 in /  1.27 mm
21:52 63.4 °F /  17.4 °C 61.9 °F /  16.6 °C 29.99 in /  1015.5 hPa ENE 7.1 mph /  11.4 km/h 10.0 mph /  16.1 km/h 95 % 0.04 in /  1.02 mm
21:57 63.4 °F /  17.4 °C 61.9 °F /  16.6 °C 29.99 in /  1015.5 hPa ENE 6.3 mph /  10.1 km/h 9.2 mph /  14.8 km/h 95 % 0.05 in /  1.27 mm
22:02 63.4 °F /  17.4 °C 61.9 °F /  16.6 °C 29.98 in /  1015.1 hPa ENE 7.4 mph /  11.9 km/h 12.7 mph /  20.4 km/h 95 % 0.05 in /  1.27 mm
22:07 63.3 °F /  17.4 °C 61.8 °F /  16.6 °C 29.98 in /  1015.1 hPa ENE 5.5 mph /  8.9 km/h 10.4 mph /  16.7 km/h 95 % 0.06 in /  1.52 mm
22:12 63.2 °F /  17.3 °C 61.7 °F /  16.5 °C 29.97 in /  1014.8 hPa East 7.5 mph /  12.1 km/h 11.5 mph /  18.5 km/h 95 % 0.06 in /  1.52 mm
22:17 63.2 °F /  17.3 °C 61.7 °F /  16.5 °C 29.97 in /  1014.8 hPa ENE 6.7 mph /  10.8 km/h 11.5 mph /  18.5 km/h 95 % 0.07 in /  1.78 mm
22:22 63.1 °F /  17.3 °C 61.6 °F /  16.4 °C 29.97 in /  1014.8 hPa East 5.5 mph /  8.9 km/h 8.1 mph /  13 km/h 95 % 0.06 in /  1.52 mm
22:27 63.1 °F /  17.3 °C 61.6 °F /  16.4 °C 29.97 in /  1014.8 hPa East 5.5 mph /  8.9 km/h 6.0 mph /  9.7 km/h 95 % 0.06 in /  1.52 mm
22:32 63.1 °F /  17.3 °C 61.6 °F /  16.4 °C 29.97 in /  1014.8 hPa East 3.8 mph /  6.1 km/h 5.8 mph /  9.3 km/h 95 % 0.05 in /  1.27 mm
22:37 63.2 °F /  17.3 °C 62.0 °F /  16.7 °C 29.97 in /  1014.8 hPa ENE 4.6 mph /  7.4 km/h 5.8 mph /  9.3 km/h 96 % 0.06 in /  1.52 mm
22:42 63.2 °F /  17.3 °C 62.0 °F /  16.7 °C 29.97 in /  1014.8 hPa East 4.4 mph /  7.1 km/h 6.9 mph /  11.1 km/h 96 % 0.05 in /  1.27 mm
22:47 63.2 °F /  17.3 °C 62.0 °F /  16.7 °C 29.97 in /  1014.8 hPa SE 3.4 mph /  5.5 km/h 6.9 mph /  11.1 km/h 96 % 0.05 in /  1.27 mm
22:52 63.2 °F /  17.3 °C 62.0 °F /  16.7 °C 29.97 in /  1014.8 hPa East 3.6 mph /  5.8 km/h 5.8 mph /  9.3 km/h 96 % 0.05 in /  1.27 mm
22:57 63.2 °F /  17.3 °C 62.0 °F /  16.7 °C 29.97 in /  1014.8 hPa East 4.2 mph /  6.8 km/h 6.0 mph /  9.7 km/h 96 % 0.05 in /  1.27 mm
23:02 63.3 °F /  17.4 °C 62.1 °F /  16.7 °C 29.97 in /  1014.8 hPa East 5.0 mph /  8 km/h 8.1 mph /  13 km/h 96 % 0.05 in /  1.27 mm
23:07 63.3 °F /  17.4 °C 62.1 °F /  16.7 °C 29.97 in /  1014.8 hPa East 4.2 mph /  6.8 km/h 5.8 mph /  9.3 km/h 96 % 0.05 in /  1.27 mm
23:12 63.1 °F /  17.3 °C 61.9 °F /  16.6 °C 29.97 in /  1014.8 hPa East 3.0 mph /  4.8 km/h 5.8 mph /  9.3 km/h 96 % 0.04 in /  1.02 mm
23:17 63.0 °F /  17.2 °C 61.8 °F /  16.6 °C 29.97 in /  1014.8 hPa ENE 3.4 mph /  5.5 km/h 4.6 mph /  7.4 km/h 96 % 0.04 in /  1.02 mm
23:22 63.1 °F /  17.3 °C 61.9 °F /  16.6 °C 29.97 in /  1014.8 hPa ENE 3.7 mph /  6 km/h 5.8 mph /  9.3 km/h 96 % 0.04 in /  1.02 mm
23:27 63.1 °F /  17.3 °C 61.9 °F /  16.6 °C 29.96 in /  1014.4 hPa East 2.4 mph /  3.9 km/h 5.0 mph /  8 km/h 96 % 0.05 in /  1.27 mm
23:32 63.2 °F /  17.3 °C 62.0 °F /  16.7 °C 29.95 in /  1014.1 hPa East 4.7 mph /  7.6 km/h 6.0 mph /  9.7 km/h 96 % 0.06 in /  1.52 mm
23:37 63.2 °F /  17.3 °C 62.0 °F /  16.7 °C 29.95 in /  1014.1 hPa ENE 4.0 mph /  6.4 km/h 6.9 mph /  11.1 km/h 96 % 0.06 in /  1.52 mm
23:42 63.2 °F /  17.3 °C 62.0 °F /  16.7 °C 29.95 in /  1014.1 hPa ENE 6.9 mph /  11.1 km/h 9.2 mph /  14.8 km/h 96 % 0.06 in /  1.52 mm
23:52 63.4 °F /  17.4 °C 62.2 °F /  16.8 °C 29.94 in /  1013.8 hPa ENE 7.8 mph /  12.6 km/h 13.8 mph /  22.2 km/h 96 % 0.07 in /  1.78 mm
23:57 63.4 °F /  17.4 °C 62.2 °F /  16.8 °C 29.93 in /  1013.4 hPa ENE 5.8 mph /  9.3 km/h 12.7 mph /  20.4 km/h 96 % 0.06 in /  1.52 mm
Crab Meadow Weather
Compliments of Weather Underground - 3 mb

Script developed by  Jim McMurry - jmcmurry@mwt.net Adapted for the template by  Wim van der Kuil - Leuven-Template.eu

Weather Terms: Lake Effect Snow Warning - Lake effect snowfall of 6 inches or more in 12 hours or less, or 8 inches or more in 24 hours or less.